createdAt,value
2023-04-07T00:03:24.875Z,4.22
2023-04-07T00:07:20.594Z,6.20
2023-04-07T00:11:13.139Z,4.85
2023-04-07T00:19:33.844Z,4.47
2023-04-07T00:22:57.725Z,5.43
2023-04-07T00:26:01.909Z,5.15
2023-04-07T00:29:27.853Z,4.68
2023-04-07T00:32:53.391Z,5.65
2023-04-07T00:36:52.107Z,4.32
2023-04-07T00:40:01.344Z,5.65
2023-04-07T00:43:26.078Z,4.35
2023-04-07T00:46:51.870Z,5.65
2023-04-07T00:54:30.943Z,5.55
2023-04-07T00:58:35.805Z,5.62
2023-04-07T01:02:40.889Z,4.68
2023-04-07T01:06:31.579Z,5.28
2023-04-07T01:10:19.959Z,5.57
2023-04-07T01:14:11.725Z,5.87
2023-04-07T01:17:45.989Z,5.40
2023-04-07T01:21:20.534Z,4.87
2023-04-07T01:25:22.958Z,4.85
2023-04-07T01:29:08.124Z,5.32
2023-04-07T01:37:05.980Z,4.87
2023-04-07T01:40:33.210Z,5.68
2023-04-07T01:44:40.863Z,5.93
2023-04-07T01:48:33.246Z,4.93
2023-04-07T01:56:32.601Z,4.50
2023-04-07T01:59:39.440Z,4.55
2023-04-07T02:03:21.627Z,4.03
2023-04-07T02:06:59.752Z,4.40
2023-04-07T02:11:04.518Z,5.18
2023-04-07T02:14:46.525Z,3.97
2023-04-07T02:18:50.973Z,4.85
2023-04-07T02:22:56.342Z,4.70
2023-04-07T02:26:37.660Z,5.43
2023-04-07T02:30:26.921Z,5.40
2023-04-07T02:34:32.103Z,5.50
2023-04-07T02:38:45.539Z,4.60
2023-04-07T02:42:12.155Z,5.05
2023-04-07T02:46:16.704Z,5.72
2023-04-07T02:50:04.738Z,4.97
2023-04-07T02:53:54.336Z,5.55
2023-04-07T02:57:32.323Z,4.40
2023-04-07T03:01:40.643Z,5.25
2023-04-07T03:05:30.575Z,5.00
2023-04-07T03:09:38.844Z,6.15
2023-04-07T03:13:45.908Z,4.60
2023-04-07T03:17:28.610Z,3.40
2023-04-07T03:21:32.872Z,3.80
2023-04-07T03:25:22.915Z,5.05
2023-04-07T03:29:29.605Z,3.97
2023-04-07T03:33:39.221Z,4.47
2023-04-07T03:37:47.881Z,6.10
2023-04-07T03:41:57.318Z,5.28
2023-04-07T03:45:40.506Z,4.05
2023-04-07T03:49:45.926Z,4.00
2023-04-07T03:53:32.409Z,5.82
2023-04-07T03:57:36.062Z,4.62
2023-04-07T04:01:20.539Z,5.53
2023-04-07T04:05:05.815Z,4.70
2023-04-07T04:08:30.808Z,4.30
2023-04-07T04:12:18.050Z,5.40
2023-04-07T04:16:32.213Z,4.57
2023-04-07T04:20:42.890Z,4.75
2023-04-07T04:24:32.311Z,4.68
2023-04-07T04:28:38.916Z,4.47
2023-04-07T04:32:54.222Z,4.95
2023-04-07T04:36:21.661Z,4.90
2023-04-07T04:40:11.849Z,4.43
2023-04-07T04:44:01.004Z,6.28
2023-04-07T04:47:45.091Z,4.65
2023-04-07T04:51:51.572Z,5.68
2023-04-07T04:55:57.747Z,4.93
2023-04-07T04:59:42.721Z,5.93
2023-04-07T05:07:34.582Z,4.22
2023-04-07T05:27:28.428Z,5.82
2023-04-07T05:31:31.125Z,5.68
2023-04-07T05:35:02.153Z,4.90
2023-04-07T05:39:08.869Z,4.75
2023-04-07T05:43:25.658Z,5.35
2023-04-07T05:46:55.429Z,6.05
2023-04-07T05:51:02.524Z,3.90
2023-04-07T05:55:07.773Z,4.60
2023-04-07T05:59:18.332Z,5.85
2023-04-07T06:02:36.378Z,5.50
2023-04-07T06:06:11.065Z,6.00
2023-04-07T06:10:01.156Z,5.20
2023-04-07T06:13:45.511Z,5.35
2023-04-07T06:17:48.593Z,5.20
2023-04-07T06:21:36.904Z,5.65
2023-04-07T06:25:24.931Z,5.55
2023-04-07T06:28:55.319Z,6.15
2023-04-07T06:32:33.711Z,5.87
2023-04-07T06:36:21.223Z,4.70
2023-04-07T06:39:39.854Z,6.00
2023-04-07T06:42:58.801Z,6.75
2023-04-07T06:46:32.301Z,5.05
2023-04-07T06:50:08.012Z,5.97
2023-04-07T06:53:25.428Z,5.80
2023-04-07T06:56:58.153Z,4.50
2023-04-07T07:00:15.328Z,5.45
2023-04-07T07:03:29.700Z,5.25
2023-04-07T07:06:52.336Z,5.47
2023-04-07T07:10:25.931Z,5.32
2023-04-07T07:13:32.202Z,5.25
2023-04-07T07:16:59.880Z,5.55
2023-04-07T07:20:07.730Z,5.68
2023-04-07T07:23:45.928Z,5.60
2023-04-07T07:26:55.318Z,5.78
2023-04-07T07:30:36.626Z,5.55
2023-04-07T07:34:05.915Z,5.78
2023-04-07T07:37:25.504Z,7.43
2023-04-07T07:41:02.642Z,5.95
2023-04-07T07:52:25.863Z,5.23
2023-04-07T07:59:37.153Z,6.85
2023-04-07T08:03:03.103Z,6.57
2023-04-07T08:06:43.774Z,6.18
2023-04-07T08:10:06.176Z,7.28
2023-04-07T08:13:28.977Z,5.82
2023-04-07T08:17:13.015Z,6.97
2023-04-07T08:20:44.317Z,6.18
2023-04-07T08:24:13.972Z,6.32
2023-04-07T08:27:38.286Z,6.95
2023-04-07T08:31:04.459Z,6.28
2023-04-07T08:34:10.247Z,6.35
2023-04-07T08:37:38.714Z,7.25
2023-04-07T08:41:28.121Z,7.22
2023-04-07T08:44:34.327Z,6.90
2023-04-07T08:47:38.208Z,8.57
2023-04-07T08:51:28.883Z,7.07
2023-04-07T08:55:08.595Z,6.45
2023-04-07T08:58:51.822Z,6.57
2023-04-07T09:02:17.474Z,6.75
2023-04-07T09:05:25.187Z,8.07
2023-04-07T09:08:29.355Z,7.32
2023-04-07T09:11:40.524Z,7.28
2023-04-07T09:15:04.585Z,7.35
2023-04-07T09:18:09.211Z,7.15
2023-04-07T09:21:15.758Z,8.32
2023-04-07T09:24:28.226Z,7.22
2023-04-07T09:27:34.933Z,7.50
2023-04-07T09:33:43.633Z,7.03
2023-04-07T09:36:47.213Z,7.95
2023-04-07T09:39:52.480Z,7.90
2023-04-07T09:43:01.301Z,7.53
2023-04-07T09:46:23.819Z,8.02
2023-04-07T09:49:29.003Z,7.68
2023-04-07T09:52:54.025Z,8.35
2023-04-07T09:55:58.052Z,8.73
2023-04-07T09:59:03.266Z,8.20
2023-04-07T10:02:06.949Z,7.80
2023-04-07T10:05:12.631Z,7.97
2023-04-07T10:08:20.981Z,8.00
2023-04-07T10:11:27.819Z,7.32
2023-04-07T10:14:32.374Z,7.62
2023-04-07T10:17:47.732Z,8.63
2023-04-07T10:21:15.431Z,7.20
2023-04-07T10:25:08.016Z,7.85
2023-04-07T10:28:29.162Z,7.82
2023-04-07T10:31:53.012Z,7.40
2023-04-07T10:39:18.990Z,6.90
2023-04-07T10:50:35.218Z,6.93
2023-04-07T10:54:22.365Z,6.60
2023-04-07T10:58:30.547Z,7.07
2023-04-07T11:06:20.801Z,7.43
2023-04-07T11:10:31.873Z,7.20
2023-04-07T11:55:36.501Z,7.37
2023-04-07T12:21:40.145Z,7.72
2023-04-07T12:25:01.771Z,6.40
2023-04-07T12:28:27.985Z,7.25
2023-04-07T12:31:45.750Z,7.60
2023-04-07T12:35:20.004Z,7.07
2023-04-07T12:38:59.438Z,6.93
2023-04-07T12:42:30.179Z,7.25
2023-04-07T12:46:04.285Z,8.40
2023-04-07T12:49:34.084Z,8.32
2023-04-07T12:53:07.702Z,7.60
2023-04-07T12:56:46.148Z,7.68
2023-04-07T13:00:21.429Z,8.32
2023-04-07T13:04:06.963Z,8.32
2023-04-07T13:07:45.562Z,6.35
2023-04-07T13:11:18.870Z,7.57
2023-04-07T13:14:52.984Z,7.82
2023-04-07T13:18:13.742Z,8.68
2023-04-07T13:21:51.510Z,8.30
2023-04-07T13:28:49.195Z,7.30
2023-04-07T13:32:08.792Z,7.55
2023-04-07T13:35:44.958Z,7.78
2023-04-07T13:39:03.980Z,8.02
2023-04-07T13:42:38.774Z,8.63
2023-04-07T13:46:28.078Z,7.82
2023-04-07T13:50:04.527Z,8.23
2023-04-07T13:53:47.097Z,7.53
2023-04-07T13:57:21.517Z,6.68
2023-04-07T14:00:53.126Z,8.85
2023-04-07T14:04:29.059Z,8.50
2023-04-07T14:07:52.536Z,7.85
2023-04-07T14:11:18.991Z,8.80
2023-04-07T14:18:09.780Z,8.70
2023-04-07T14:21:44.459Z,7.72
2023-04-07T14:25:16.711Z,8.30
2023-04-07T14:28:42.316Z,8.35
2023-04-07T14:50:39.012Z,6.35
2023-04-07T14:54:13.033Z,7.07
2023-04-07T15:00:55.485Z,8.07
2023-04-07T15:04:33.079Z,6.80
2023-04-07T15:08:14.550Z,12.90
2023-04-07T15:14:54.721Z,7.57
2023-04-07T15:18:39.947Z,7.85
2023-04-07T15:21:55.178Z,7.35
2023-04-07T15:25:25.106Z,7.40
2023-04-07T15:28:42.232Z,8.13
2023-04-07T15:32:09.547Z,7.00
2023-04-07T15:35:46.833Z,8.02
2023-04-07T15:39:19.854Z,8.20
2023-04-07T15:42:41.782Z,7.80
2023-04-07T15:45:58.892Z,7.68
2023-04-07T15:49:41.463Z,7.57
2023-04-07T16:04:41.429Z,9.05
2023-04-07T16:08:26.624Z,7.55
2023-04-07T16:11:33.146Z,6.12
2023-04-07T16:14:53.565Z,9.63
2023-04-07T16:18:24.597Z,7.53
2023-04-07T16:22:01.804Z,8.13
2023-04-07T16:25:42.112Z,8.32
2023-04-07T16:29:25.881Z,6.93
2023-04-07T16:33:01.116Z,6.78
2023-04-07T16:36:35.841Z,8.73
2023-04-07T16:40:00.351Z,7.97
2023-04-07T16:43:30.956Z,7.57
2023-04-07T16:47:05.010Z,6.75
2023-04-07T16:50:48.048Z,7.82
2023-04-07T16:54:22.177Z,9.32
2023-04-07T17:01:13.715Z,9.10
2023-04-07T17:04:31.980Z,8.45
2023-04-07T17:07:58.510Z,6.93
2023-04-07T17:11:28.965Z,6.72
2023-04-07T17:14:47.584Z,8.27
2023-04-07T17:18:12.285Z,7.43
2023-04-07T17:21:52.622Z,6.25
2023-04-07T17:25:28.060Z,6.47
2023-04-07T17:29:05.313Z,5.95
2023-04-07T17:32:28.534Z,6.62
2023-04-07T17:36:10.878Z,7.43
2023-04-07T17:39:26.035Z,7.53
2023-04-07T17:43:03.170Z,7.37
2023-04-07T17:46:39.913Z,7.82
2023-04-07T17:50:16.429Z,8.32
2023-04-07T17:53:51.895Z,7.43
2023-04-07T17:57:23.196Z,7.50
2023-04-07T18:00:51.100Z,8.20
2023-04-07T18:04:18.538Z,10.65
2023-04-07T18:07:50.422Z,9.05
2023-04-07T18:11:32.858Z,8.15
2023-04-07T18:15:02.813Z,9.25
2023-04-07T18:18:29.882Z,6.10
2023-04-07T18:22:10.801Z,7.60
2023-04-07T18:25:42.581Z,8.02
2023-04-07T18:28:45.696Z,9.88
2023-04-07T18:31:51.454Z,8.25
2023-04-07T18:34:55.493Z,8.23
2023-04-07T18:38:00.298Z,8.90
2023-04-07T18:41:08.512Z,7.25
2023-04-07T18:44:13.392Z,8.90
2023-04-07T18:47:17.510Z,7.45
2023-04-07T18:50:20.410Z,8.80
2023-04-07T18:53:25.461Z,6.90
2023-04-07T18:56:31.574Z,7.50
2023-04-07T18:59:34.477Z,8.02
2023-04-07T19:02:44.349Z,7.62
2023-04-07T19:05:52.848Z,8.27
2023-04-07T19:09:04.600Z,7.55
2023-04-07T19:12:25.028Z,8.27
2023-04-07T19:15:30.420Z,9.73
2023-04-07T19:18:37.757Z,9.00
2023-04-07T19:21:41.384Z,9.77
2023-04-07T19:24:48.311Z,8.10
2023-04-07T19:27:52.127Z,8.32
2023-04-07T19:31:06.245Z,8.85
2023-04-07T19:34:11.230Z,9.63
2023-04-07T19:37:16.821Z,7.95
2023-04-07T19:40:23.622Z,9.65
2023-04-07T19:43:30.947Z,9.45
2023-04-07T19:46:53.562Z,8.85
2023-04-07T19:50:00.371Z,10.35
2023-04-07T19:53:03.335Z,8.95
2023-04-07T19:56:06.708Z,8.15
2023-04-07T19:59:09.670Z,8.05
2023-04-07T20:02:13.150Z,10.30
2023-04-07T20:05:18.120Z,8.65
2023-04-07T20:08:22.677Z,8.32
2023-04-07T20:11:46.672Z,7.50
2023-04-07T20:14:53.327Z,8.30
2023-04-07T20:18:00.572Z,6.85
2023-04-07T20:21:10.018Z,7.28
2023-04-07T20:24:13.429Z,8.32
2023-04-07T20:27:18.537Z,9.70
2023-04-07T20:30:23.169Z,9.55
2023-04-07T20:33:26.196Z,8.75
2023-04-07T20:36:29.510Z,8.70
2023-04-07T20:39:53.047Z,7.50
2023-04-07T20:42:56.563Z,8.20
2023-04-07T20:46:05.915Z,7.97
2023-04-07T20:49:13.387Z,7.75
2023-04-07T20:52:44.638Z,8.65
2023-04-07T20:55:48.460Z,7.00
2023-04-07T20:58:54.161Z,9.73
2023-04-07T21:01:57.660Z,8.23
2023-04-07T21:05:03.883Z,6.97
2023-04-07T21:08:09.354Z,8.43
2023-04-07T21:11:19.964Z,8.95
2023-04-07T21:14:33.627Z,6.87
2023-04-07T21:17:40.695Z,7.35
2023-04-07T21:21:04.431Z,6.47
2023-04-07T21:24:07.961Z,7.47
2023-04-07T21:27:12.364Z,7.82
2023-04-07T21:30:16.681Z,6.07
2023-04-07T21:33:21.891Z,7.90
2023-04-07T21:36:28.903Z,8.32
2023-04-07T21:40:20.042Z,6.82
2023-04-07T21:43:29.096Z,6.80
2023-04-07T21:47:15.028Z,7.10
2023-04-07T21:50:20.094Z,7.82
2023-04-07T21:53:25.267Z,7.65
2023-04-07T21:56:49.272Z,7.47
2023-04-07T21:59:57.827Z,7.80
2023-04-07T22:03:02.100Z,6.90
2023-04-07T22:06:09.407Z,5.47
2023-04-07T22:09:12.983Z,5.90
2023-04-07T22:12:16.471Z,6.03
2023-04-07T22:15:19.591Z,5.05
2023-04-07T22:18:23.110Z,6.07
2023-04-07T22:21:28.090Z,7.45
2023-04-07T22:24:59.954Z,5.35
2023-04-07T22:28:26.765Z,5.50
2023-04-07T22:31:30.377Z,6.90
2023-04-07T22:34:38.565Z,6.20
2023-04-07T22:37:41.962Z,6.18
2023-04-07T22:40:45.553Z,6.35
2023-04-07T22:43:48.949Z,6.20
2023-04-07T22:46:57.541Z,6.62
2023-04-07T22:50:11.847Z,6.32
2023-04-07T22:53:18.222Z,5.62
2023-04-07T22:56:22.404Z,6.45
2023-04-07T22:59:26.638Z,5.93
2023-04-07T23:02:31.916Z,5.95
2023-04-07T23:05:35.663Z,6.00
2023-04-07T23:09:15.661Z,5.87
2023-04-07T23:12:18.672Z,6.40
2023-04-07T23:15:41.864Z,7.00
2023-04-07T23:18:48.313Z,7.65
2023-04-07T23:22:12.510Z,6.53
2023-04-07T23:25:15.582Z,7.00
2023-04-07T23:28:36.080Z,6.37
2023-04-07T23:31:39.968Z,6.22
2023-04-07T23:34:45.837Z,6.72
2023-04-07T23:37:56.982Z,6.30
2023-04-07T23:41:03.449Z,5.85
2023-04-07T23:44:07.323Z,6.22
2023-04-07T23:47:14.657Z,6.37
2023-04-07T23:50:17.461Z,5.93
2023-04-07T23:53:54.607Z,5.60
2023-04-07T23:57:00.362Z,7.18
